Time;durP1;ratioP1;P1;durP2;ratioP2;P2;SDS_P1;SDS_P2;PMS_P1;PMS_P2;Temp;Humidity;BMP_temperature;BMP_pressure;BME280_temperature;BME280_humidity;BME280_pressure;Samples;Min_cycle;Max_cycle;Signal;HPM_P1;HPM_P2
2021/11/13 00:00:29;;;;;;;0.75;0.60;;;18.40;67.20;;;;;;5104005;28;20024;-37
2021/11/13 00:02:56;;;;;;;0.63;0.63;;;18.40;67.20;;;;;;5104953;28;20020;-37
2021/11/13 00:05:22;;;;;;;0.80;0.60;;;18.40;67.20;;;;;;5105011;28;20034;-38
2021/11/13 00:07:48;;;;;;;0.65;0.65;;;18.40;67.10;;;;;;5103811;28;20050;-37
2021/11/13 00:10:15;;;;;;;2.67;0.80;;;18.40;67.10;;;;;;5105400;28;20032;-37
2021/11/13 00:12:44;;;;;;;0.80;0.80;;;18.40;67.20;;;;;;5099469;28;20024;-37
2021/11/13 00:15:11;;;;;;;0.80;0.73;;;18.40;67.10;;;;;;5087468;28;20736;-37
2021/11/13 00:17:37;;;;;;;0.90;0.80;;;18.30;67.20;;;;;;5104986;28;20366;-37
2021/11/13 00:20:05;;;;;;;0.60;0.60;;;18.30;67.10;;;;;;5104990;28;20028;-37
2021/11/13 00:22:31;;;;;;;;;;;18.30;67.10;;;;;;5105010;28;20031;-37
2021/11/13 00:24:57;;;;;;;0.70;0.70;;;18.30;67.10;;;;;;5104741;28;19946;-37
2021/11/13 00:27:23;;;;;;;1.10;0.80;;;18.30;67.10;;;;;;5104840;28;20036;-37
2021/11/13 00:29:49;;;;;;;0.90;0.70;;;18.30;67.20;;;;;;5103401;28;20020;-37
2021/11/13 00:32:16;;;;;;;0.90;0.80;;;18.30;67.10;;;;;;5104473;28;20039;-38
2021/11/13 00:34:42;;;;;;;0.50;0.50;;;18.20;67.10;;;;;;5104829;28;20475;-37
2021/11/13 00:37:08;;;;;;;1.52;0.70;;;18.20;67.10;;;;;;5104418;28;20024;-37
2021/11/13 00:39:34;;;;;;;0.80;0.70;;;18.20;67.10;;;;;;5103523;28;20091;-37
2021/11/13 00:42:00;;;;;;;1.10;0.90;;;18.20;67.10;;;;;;5104610;28;20076;-37
2021/11/13 00:44:26;;;;;;;1.17;0.95;;;18.20;67.20;;;;;;5104368;28;20406;-37
2021/11/13 00:46:52;;;;;;;1.08;0.95;;;18.10;67.20;;;;;;5104477;28;20081;-37
2021/11/13 00:49:19;;;;;;;0.70;0.60;;;18.10;67.20;;;;;;5104380;28;20032;-37
2021/11/13 00:51:45;;;;;;;1.40;0.80;;;18.10;67.90;;;;;;5104068;28;20031;-37
2021/11/13 00:54:11;;;;;;;1.17;1.08;;;18.10;67.20;;;;;;5104181;28;20032;-37
2021/11/13 00:56:37;;;;;;;1.98;0.95;;;18.10;67.20;;;;;;5104303;28;20062;-37
2021/11/13 00:59:04;;;;;;;1.30;0.90;;;18.00;67.20;;;;;;5104228;28;20043;-37
2021/11/13 01:01:30;;;;;;;1.42;0.93;;;18.00;68.00;;;;;;5104196;28;20050;-37
2021/11/13 01:03:57;;;;;;;1.15;0.95;;;18.00;67.30;;;;;;5103844;28;20027;-37
2021/11/13 01:06:23;;;;;;;;;;;18.00;67.30;;;;;;5104252;28;20127;-37
2021/11/13 01:08:49;;;;;;;1.10;1.00;;;18.00;67.30;;;;;;5093276;28;19958;-37
2021/11/13 01:11:16;;;;;;;0.80;0.80;;;18.00;67.30;;;;;;5085250;28;20057;-37
2021/11/13 01:13:42;;;;;;;1.13;0.95;;;17.90;67.40;;;;;;5103848;28;20036;-37
2021/11/13 01:16:08;;;;;;;0.88;0.75;;;17.90;67.30;;;;;;5102285;28;20028;-37
2021/11/13 01:18:35;;;;;;;1.02;0.82;;;17.90;67.40;;;;;;5103760;28;20118;-37
2021/11/13 01:21:01;;;;;;;1.57;0.97;;;17.90;67.40;;;;;;5103588;28;20073;-37
2021/11/13 01:23:27;;;;;;;1.10;0.98;;;17.90;67.40;;;;;;5090895;28;20048;-37
2021/11/13 01:25:53;;;;;;;1.38;1.20;;;17.90;67.50;;;;;;5083328;28;20455;-37
2021/11/13 01:28:20;;;;;;;1.50;0.98;;;17.80;67.40;;;;;;5083339;28;20111;-37
2021/11/13 01:30:46;;;;;;;2.05;1.13;;;17.80;68.20;;;;;;5083295;28;20029;-37
2021/11/13 01:33:12;;;;;;;1.10;1.00;;;17.80;67.50;;;;;;5102959;28;20114;-37
2021/11/13 01:35:39;;;;;;;1.17;1.00;;;17.80;67.50;;;;;;5103632;28;20028;-37
2021/11/13 01:38:05;;;;;;;2.65;1.00;;;17.80;67.60;;;;;;5102509;28;20047;-37
2021/11/13 01:40:31;;;;;;;1.15;1.05;;;17.70;67.60;;;;;;5103563;28;20027;-37
2021/11/13 01:42:58;;;;;;;1.42;1.27;;;17.70;67.60;;;;;;5103439;28;20845;-38
2021/11/13 01:45:24;;;;;;;1.45;1.20;;;17.70;67.60;;;;;;5101866;28;20028;-37
2021/11/13 01:47:51;;;;;;;1.08;0.98;;;17.70;67.60;;;;;;5103353;28;20122;-38
2021/11/13 01:50:23;;;;;;;1.50;1.00;;;17.70;67.70;;;;;;5103348;28;20024;-37
2021/11/13 01:52:49;;;;;;;1.00;0.90;;;17.70;67.70;;;;;;5103333;28;20096;-37
2021/11/13 01:55:16;;;;;;;1.40;1.27;;;17.60;67.80;;;;;;5102923;28;20028;-37
2021/11/13 01:57:47;;;;;;;1.70;1.05;;;17.60;67.80;;;;;;5103262;28;20401;-38
2021/11/13 02:00:16;;;;;;;1.73;1.30;;;17.60;67.80;;;;;;5103302;28;20028;-38
2021/11/13 02:02:42;;;;;;;1.45;1.10;;;17.60;67.80;;;;;;5103037;28;20020;-37
2021/11/13 02:05:08;;;;;;;1.55;1.15;;;17.60;67.80;;;;;;5102840;28;20083;-38
2021/11/13 02:07:35;;;;;;;1.10;1.00;;;17.60;67.90;;;;;;5102091;28;20028;-37
2021/11/13 02:10:02;;;;;;;1.00;0.90;;;17.50;67.80;;;;;;5101952;28;20028;-37
2021/11/13 02:12:28;;;;;;;;;;;17.50;67.90;;;;;;5103590;28;20039;-38
2021/11/13 02:14:54;;;;;;;1.45;1.02;;;17.50;67.90;;;;;;5102550;28;19947;-37
2021/11/13 02:17:20;;;;;;;1.50;1.40;;;17.50;68.00;;;;;;5103079;28;20032;-37
2021/11/13 02:19:48;;;;;;;1.75;1.20;;;17.50;68.00;;;;;;5102735;28;20020;-37
2021/11/13 02:22:15;;;;;;;1.27;1.00;;;17.50;68.00;;;;;;5102667;28;20036;-37
2021/11/13 02:24:44;;;;;;;1.15;1.05;;;17.40;68.00;;;;;;5102797;28;20050;-38
2021/11/13 02:27:11;;;;;;;1.27;0.98;;;17.40;68.10;;;;;;5102868;28;20062;-38
2021/11/13 02:29:37;;;;;;;1.33;1.20;;;17.40;68.10;;;;;;5102860;28;20036;-37
2021/11/13 02:32:04;;;;;;;1.40;1.30;;;17.40;68.20;;;;;;5102989;28;20268;-37
2021/11/13 02:34:30;;;;;;;1.40;1.13;;;17.40;68.20;;;;;;5102623;28;20027;-37
2021/11/13 02:36:56;;;;;;;1.63;1.17;;;17.40;68.20;;;;;;5102717;28;20078;-37
2021/11/13 02:39:23;;;;;;;1.15;1.05;;;17.30;68.30;;;;;;5087207;28;20082;-38
2021/11/13 02:41:49;;;;;;;1.50;1.40;;;17.30;68.30;;;;;;5088954;28;20042;-37
2021/11/13 02:44:20;;;;;;;1.42;1.25;;;17.30;68.30;;;;;;5102402;28;20040;-38
2021/11/13 02:46:46;;;;;;;1.30;1.20;;;17.30;68.30;;;;;;5080967;28;20043;-37
2021/11/13 02:49:12;;;;;;;2.10;1.48;;;17.30;68.40;;;;;;5082615;28;20035;-37
2021/11/13 02:51:38;;;;;;;2.20;1.40;;;17.20;68.30;;;;;;5082314;28;20029;-37
2021/11/13 02:54:04;;;;;;;2.05;1.30;;;17.20;68.30;;;;;;5082097;28;20028;-37
2021/11/13 02:56:30;;;;;;;1.67;1.10;;;17.20;68.30;;;;;;5082371;28;20029;-37
2021/11/13 02:58:57;;;;;;;1.75;1.30;;;17.20;68.40;;;;;;5082262;28;20020;-37
2021/11/13 03:01:24;;;;;;;1.30;1.20;;;17.20;68.40;;;;;;5087016;28;20460;-37
2021/11/13 03:03:51;;;;;;;3.38;1.63;;;17.20;68.50;;;;;;5101217;28;20027;-38
2021/11/13 03:06:17;;;;;;;1.55;1.35;;;17.10;68.50;;;;;;5102129;28;20108;-37
2021/11/13 03:08:43;;;;;;;1.70;1.30;;;17.10;68.40;;;;;;5108363;28;20695;-37
2021/11/13 03:11:11;;;;;;;2.13;1.55;;;17.10;68.50;;;;;;5082995;28;20031;-37
2021/11/13 03:13:39;;;;;;;1.85;1.48;;;17.10;68.60;;;;;;5102275;28;20118;-37
2021/11/13 03:16:06;;;;;;;2.22;1.40;;;17.10;68.60;;;;;;5102270;28;20027;-37
2021/11/13 03:18:32;;;;;;;1.60;1.50;;;17.00;68.60;;;;;;5101047;28;20045;-37
2021/11/13 03:20:59;;;;;;;1.85;1.50;;;17.00;68.60;;;;;;5102669;28;20489;-37
2021/11/13 03:23:25;;;;;;;2.25;1.42;;;17.00;68.70;;;;;;5103429;28;20472;-37
2021/11/13 03:25:58;;;;;;;1.80;1.40;;;17.00;68.70;;;;;;5105816;28;20028;-37
2021/11/13 03:28:25;;;;;;;2.17;1.75;;;17.00;68.70;;;;;;5105865;28;20040;-37
2021/11/13 03:30:51;;;;;;;1.70;1.40;;;17.00;68.70;;;;;;5106018;28;20028;-37
2021/11/13 03:33:18;;;;;;;3.70;1.53;;;16.90;68.70;;;;;;5106288;28;20047;-37
2021/11/13 03:35:44;;;;;;;2.73;1.60;;;16.90;68.80;;;;;;5105707;28;20036;-38
2021/11/13 03:38:13;;;;;;;2.00;1.63;;;16.90;68.70;;;;;;5105415;28;20111;-37
2021/11/13 03:40:41;;;;;;;1.63;1.50;;;16.90;68.70;;;;;;5105858;28;20340;-37
2021/11/13 03:43:07;;;;;;;3.53;1.50;;;16.90;68.80;;;;;;5104113;28;20032;-38
2021/11/13 03:45:34;;;;;;;2.27;1.60;;;16.90;68.80;;;;;;5104234;28;20091;-37
2021/11/13 03:48:00;;;;;;;1.67;1.50;;;16.90;68.80;;;;;;5105643;28;20031;-37
2021/11/13 03:50:26;;;;;;;2.27;1.63;;;16.80;68.80;;;;;;5105545;28;20106;-37
2021/11/13 03:52:53;;;;;;;1.88;1.67;;;16.80;68.90;;;;;;5105425;28;20032;-37
2021/11/13 03:55:19;;;;;;;2.58;1.77;;;16.80;68.90;;;;;;5103805;28;20028;-38
2021/11/13 03:57:45;;;;;;;1.60;1.48;;;16.80;68.90;;;;;;5105475;28;20032;-37
2021/11/13 04:00:12;;;;;;;2.03;1.67;;;16.80;68.90;;;;;;5105629;28;20086;-37
2021/11/13 04:02:39;;;;;;;2.33;1.50;;;16.70;68.80;;;;;;5105229;28;20538;-37
2021/11/13 04:05:05;;;;;;;2.13;1.83;;;16.70;68.90;;;;;;5105356;28;20032;-38
2021/11/13 04:07:31;;;;;;;2.13;1.83;;;16.70;69.00;;;;;;5104786;28;20040;-37
2021/11/13 04:09:57;;;;;;;1.63;1.50;;;16.70;69.00;;;;;;5085288;28;20029;-37
2021/11/13 04:12:23;;;;;;;3.28;1.75;;;16.70;69.00;;;;;;5095850;28;20101;-37
2021/11/13 04:14:50;;;;;;;3.25;1.85;;;16.70;69.10;;;;;;5104702;28;20028;-37
2021/11/13 04:17:16;;;;;;;1.80;1.63;;;16.70;69.10;;;;;;5104792;28;20028;-37
2021/11/13 04:19:42;;;;;;;1.83;1.60;;;16.60;69.10;;;;;;5105118;28;20028;-38
2021/11/13 04:22:08;;;;;;;2.70;1.90;;;16.60;69.10;;;;;;5104889;28;20024;-37
2021/11/13 04:24:34;;;;;;;2.08;1.65;;;16.60;69.10;;;;;;5104980;28;20032;-37
2021/11/13 04:27:00;;;;;;;2.40;1.98;;;16.60;69.10;;;;;;5104612;28;20549;-37
2021/11/13 04:29:27;;;;;;;2.35;1.50;;;16.60;69.20;;;;;;5104757;28;20050;-37
2021/11/13 04:31:53;;;;;;;2.10;1.65;;;16.60;69.10;;;;;;5104786;28;20084;-37
2021/11/13 04:34:22;;;;;;;2.55;1.88;;;16.60;69.20;;;;;;5104234;28;20024;-37
2021/11/13 04:36:52;;;;;;;1.92;1.73;;;16.60;69.20;;;;;;5104343;28;20377;-37
2021/11/13 04:39:19;;;;;;;2.30;1.73;;;16.50;69.20;;;;;;5102918;28;20035;-38
2021/11/13 04:41:45;;;;;;;3.38;2.00;;;16.50;69.20;;;;;;5104591;28;20388;-38
2021/11/13 04:44:11;;;;;;;2.60;1.70;;;16.50;69.20;;;;;;5104635;28;20092;-38
2021/11/13 04:46:37;;;;;;;3.17;1.60;;;16.50;69.30;;;;;;5104517;28;20020;-37
2021/11/13 04:49:03;;;;;;;2.08;1.88;;;16.50;69.30;;;;;;5103829;28;20108;-38
2021/11/13 04:51:29;;;;;;;3.50;1.83;;;16.50;69.50;;;;;;5104311;28;20050;-38
2021/11/13 04:53:55;;;;;;;1.80;1.70;;;16.50;69.80;;;;;;5102805;28;20042;-37
2021/11/13 04:56:22;;;;;;;2.03;1.83;;;16.50;69.80;;;;;;5104011;28;20055;-38
2021/11/13 04:58:48;;;;;;;2.15;1.77;;;16.50;69.70;;;;;;5104232;28;20032;-38
2021/11/13 05:01:14;;;;;;;2.70;1.88;;;16.50;69.70;;;;;;5104010;28;20028;-37
2021/11/13 05:03:40;;;;;;;2.38;1.80;;;16.50;69.70;;;;;;5104129;28;20024;-37
2021/11/13 05:06:07;;;;;;;2.80;1.75;;;16.40;69.60;;;;;;5103757;28;20118;-37
2021/11/13 05:08:33;;;;;;;4.68;2.08;;;16.40;69.70;;;;;;5102481;28;20056;-37
2021/11/13 05:10:59;;;;;;;3.35;2.10;;;16.40;69.60;;;;;;5102834;28;20052;-38
2021/11/13 05:13:25;;;;;;;2.05;1.85;;;16.40;69.90;;;;;;5103900;28;20016;-38
2021/11/13 05:15:52;;;;;;;2.03;1.83;;;16.50;70.30;;;;;;5103879;28;20028;-38
2021/11/13 05:18:18;;;;;;;2.15;1.90;;;16.60;70.20;;;;;;5103498;28;20028;-38
2021/11/13 05:20:44;;;;;;;3.10;1.80;;;16.50;70.00;;;;;;5095917;28;20029;-38
2021/11/13 05:23:10;;;;;;;2.55;1.77;;;16.50;70.00;;;;;;5103366;28;20020;-39
2021/11/13 05:25:36;;;;;;;1.67;1.58;;;16.50;70.00;;;;;;5103713;28;20031;-38
2021/11/13 05:28:03;;;;;;;2.78;2.10;;;16.50;70.00;;;;;;5102003;28;20123;-38
2021/11/13 05:30:29;;;;;;;2.08;1.80;;;16.50;70.00;;;;;;5103566;28;20028;-38
2021/11/13 05:32:55;;;;;;;2.28;1.90;;;16.40;70.00;;;;;;5103424;28;20087;-38
2021/11/13 05:35:21;;;;;;;2.35;1.90;;;16.40;69.90;;;;;;5103515;28;20028;-38
2021/11/13 05:37:48;;;;;;;2.13;1.75;;;16.40;70.20;;;;;;5102690;28;20034;-37
2021/11/13 05:40:14;;;;;;;1.88;1.63;;;16.50;71.20;;;;;;5102102;28;20032;-38
2021/11/13 05:42:41;;;;;;;2.33;1.67;;;16.50;70.40;;;;;;5102172;28;20055;-38
2021/11/13 05:45:08;;;;;;;1.93;1.47;;;16.50;70.10;;;;;;5102583;28;20059;-38
2021/11/13 05:47:34;;;;;;;;;;;16.50;70.20;;;;;;5102025;28;20110;-38
2021/11/13 05:50:00;;;;;;;2.10;1.75;;;16.50;70.20;;;;;;5103261;28;19915;-38
2021/11/13 05:52:26;;;;;;;2.03;1.77;;;16.50;70.20;;;;;;5102866;28;20030;-38
2021/11/13 05:54:52;;;;;;;1.65;1.55;;;16.40;70.10;;;;;;5103221;28;20016;-37
2021/11/13 05:57:19;;;;;;;2.70;2.08;;;16.40;70.10;;;;;;5102939;28;20442;-37
2021/11/13 05:59:45;;;;;;;4.55;2.30;;;16.40;70.10;;;;;;5103080;28;20028;-38
2021/11/13 06:02:11;;;;;;;1.92;1.70;;;16.50;70.70;;;;;;5103095;28;20140;-37
2021/11/13 06:04:37;;;;;;;2.13;1.83;;;16.50;70.80;;;;;;5102989;28;20028;-38
2021/11/13 06:07:04;;;;;;;2.13;1.80;;;16.60;70.60;;;;;;5101868;28;20117;-38
2021/11/13 06:09:31;;;;;;;2.42;1.98;;;16.60;70.30;;;;;;5101887;28;20027;-38
2021/11/13 06:11:57;;;;;;;2.93;1.93;;;16.50;70.30;;;;;;5102908;28;20036;-38
2021/11/13 06:14:23;;;;;;;1.83;1.63;;;16.50;70.20;;;;;;5102468;28;20050;-37
2021/11/13 06:16:50;;;;;;;2.22;1.75;;;16.50;70.20;;;;;;5102807;28;20028;-38
2021/11/13 06:19:16;;;;;;;2.30;2.03;;;16.50;70.30;;;;;;5102477;28;20028;-38
2021/11/13 06:21:42;;;;;;;3.30;2.00;;;16.40;70.20;;;;;;5102632;28;20027;-38
2021/11/13 06:24:10;;;;;;;2.70;2.30;;;16.40;70.20;;;;;;5102719;28;20024;-38
2021/11/13 06:26:36;;;;;;;2.97;2.30;;;16.40;70.30;;;;;;5102815;28;20046;-38
2021/11/13 06:29:02;;;;;;;2.28;2.05;;;16.50;70.80;;;;;;5102455;28;20032;-37
2021/11/13 06:31:29;;;;;;;1.77;1.67;;;16.60;70.90;;;;;;5102722;28;20028;-38
2021/11/13 06:33:55;;;;;;;2.08;1.83;;;16.60;70.50;;;;;;5102519;28;20028;-38
2021/11/13 06:36:21;;;;;;;2.38;1.95;;;16.50;70.30;;;;;;5102449;28;20024;-38
2021/11/13 06:38:47;;;;;;;2.70;2.17;;;16.50;70.30;;;;;;5092288;28;20053;-37
2021/11/13 06:41:13;;;;;;;2.35;2.00;;;16.50;70.40;;;;;;5083571;28;20249;-38
2021/11/13 06:43:39;;;;;;;2.70;2.00;;;16.50;70.30;;;;;;5102684;28;20028;-38
2021/11/13 06:46:05;;;;;;;2.75;2.20;;;16.40;70.20;;;;;;5102469;28;20048;-37
2021/11/13 06:48:32;;;;;;;2.40;1.98;;;16.40;70.30;;;;;;5102246;28;20039;-38
2021/11/13 06:50:58;;;;;;;2.85;2.08;;;16.40;70.20;;;;;;5102536;28;20032;-38
2021/11/13 06:53:24;;;;;;;2.80;2.03;;;16.40;70.60;;;;;;5102206;28;20108;-38
2021/11/13 06:55:50;;;;;;;2.78;2.00;;;16.50;70.70;;;;;;5102756;28;20032;-38
2021/11/13 06:58:17;;;;;;;3.17;2.10;;;16.60;70.50;;;;;;5104820;28;20023;-37
2021/11/13 07:00:43;;;;;;;2.20;2.00;;;16.50;70.20;;;;;;5101497;28;20044;-38
2021/11/13 07:03:09;;;;;;;2.97;2.30;;;16.50;70.30;;;;;;5084787;28;20033;-38
2021/11/13 07:05:35;;;;;;;2.50;2.25;;;16.50;70.30;;;;;;5085859;28;20020;-38
2021/11/13 07:08:01;;;;;;;2.28;2.08;;;16.40;70.20;;;;;;5085529;28;20130;-38
2021/11/13 07:10:28;;;;;;;3.25;2.30;;;16.40;70.20;;;;;;5085909;28;20033;-38
2021/11/13 07:12:54;;;;;;;3.13;2.30;;;16.40;70.20;;;;;;5101253;28;20032;-38
2021/11/13 07:15:24;;;;;;;2.53;2.33;;;16.40;70.20;;;;;;5104915;28;20088;-38
2021/11/13 07:17:50;;;;;;;3.03;2.10;;;16.50;70.70;;;;;;5105511;28;20028;-38
2021/11/13 07:20:16;;;;;;;3.25;2.20;;;16.50;70.70;;;;;;5105949;28;20050;-37
2021/11/13 07:22:45;;;;;;;2.60;2.08;;;16.60;70.60;;;;;;5105941;28;20024;-38
2021/11/13 07:25:15;;;;;;;2.42;2.05;;;16.60;70.30;;;;;;5105695;28;20036;-38
2021/11/13 07:27:44;;;;;;;3.13;2.35;;;16.50;70.20;;;;;;5088444;28;20059;-38
2021/11/13 07:30:12;;;;;;;3.50;2.13;;;16.50;70.20;;;;;;5084254;28;20025;-38
2021/11/13 07:32:38;;;;;;;3.15;2.28;;;16.50;70.30;;;;;;5085446;28;20028;-38
2021/11/13 07:35:05;;;;;;;2.25;1.83;;;16.40;70.20;;;;;;5085314;28;20020;-38
2021/11/13 07:37:31;;;;;;;2.65;2.45;;;16.40;70.20;;;;;;5085277;28;20025;-37
2021/11/13 07:39:57;;;;;;;2.25;1.85;;;16.40;70.30;;;;;;5104942;28;20031;-38
2021/11/13 07:42:23;;;;;;;2.38;2.00;;;16.50;70.70;;;;;;5094756;28;20093;-41
2021/11/13 07:44:49;;;;;;;2.63;1.88;;;16.60;70.50;;;;;;5085086;28;20021;-37
2021/11/13 07:47:16;;;;;;;2.60;1.90;;;16.60;70.40;;;;;;5092873;28;20091;-38
2021/11/13 07:49:42;;;;;;;2.42;2.22;;;16.50;70.20;;;;;;5105619;28;20031;-38
2021/11/13 07:52:08;;;;;;;2.22;1.90;;;16.50;71.00;;;;;;5105404;28;20024;-38
2021/11/13 07:54:35;;;;;;;2.47;2.00;;;16.50;70.30;;;;;;5105251;28;20096;-38
2021/11/13 07:57:01;;;;;;;3.00;1.97;;;16.40;71.00;;;;;;5105165;28;20049;-38
2021/11/13 07:59:27;;;;;;;2.90;2.03;;;16.40;70.20;;;;;;5105321;28;20034;-38
2021/11/13 08:01:53;;;;;;;2.83;2.10;;;16.40;70.30;;;;;;5105172;28;20024;-38
2021/11/13 08:04:19;;;;;;;3.55;2.28;;;16.50;70.80;;;;;;5105316;28;20048;-38
2021/11/13 08:06:45;;;;;;;3.88;2.13;;;16.60;70.70;;;;;;5104729;28;20041;-38
2021/11/13 08:09:11;;;;;;;2.28;2.08;;;16.60;70.50;;;;;;5089557;28;20044;-37
2021/11/13 08:11:38;;;;;;;2.60;1.88;;;16.60;70.20;;;;;;5089442;28;20024;-38
2021/11/13 08:14:05;;;;;;;2.58;2.08;;;16.60;70.10;;;;;;5104942;28;20528;-37
2021/11/13 08:16:31;;;;;;;3.10;2.35;;;16.50;70.20;;;;;;5104358;28;20085;-38
2021/11/13 08:18:58;;;;;;;2.57;1.97;;;16.50;70.30;;;;;;5104828;28;20028;-38
2021/11/13 08:21:25;;;;;;;2.83;2.42;;;16.50;70.20;;;;;;5105082;28;20364;-38
2021/11/13 08:23:51;;;;;;;2.92;2.40;;;16.50;70.20;;;;;;5104609;28;20028;-38
2021/11/13 08:26:17;;;;;;;3.00;2.30;;;16.40;70.20;;;;;;5104597;28;20640;-38
2021/11/13 08:28:43;;;;;;;2.75;2.22;;;16.50;70.70;;;;;;5104510;28;20035;-38
2021/11/13 08:31:09;;;;;;;3.85;1.98;;;16.60;70.70;;;;;;5104763;28;20020;-38
2021/11/13 08:33:35;;;;;;;2.40;2.00;;;16.60;70.40;;;;;;5104560;28;20035;-38
2021/11/13 08:36:02;;;;;;;2.33;2.13;;;16.60;70.20;;;;;;5104332;28;20024;-38
2021/11/13 08:38:28;;;;;;;3.17;2.40;;;16.60;70.20;;;;;;5103509;28;20039;-38
2021/11/13 08:40:55;;;;;;;2.38;2.03;;;16.50;70.20;;;;;;5104479;28;20058;-38
2021/11/13 08:43:21;;;;;;;2.15;1.95;;;16.50;70.30;;;;;;5085320;28;20039;-39
2021/11/13 08:45:48;;;;;;;2.50;2.10;;;16.50;70.20;;;;;;5083966;28;20512;-38
2021/11/13 08:48:14;;;;;;;2.50;2.30;;;16.40;70.20;;;;;;5098339;28;20068;-38
2021/11/13 08:50:41;;;;;;;3.00;2.13;;;16.40;70.20;;;;;;5102996;28;20621;-38
2021/11/13 08:53:07;;;;;;;2.85;2.53;;;16.50;70.70;;;;;;5104073;28;20039;-38
2021/11/13 08:55:34;;;;;;;4.40;2.30;;;16.60;70.60;;;;;;5103956;28;20129;-38
2021/11/13 08:58:01;;;;;;;;;;;16.60;70.20;;;;;;5104767;28;20038;-38
2021/11/13 09:00:40;;;;;;;3.47;2.17;;;16.60;70.10;;;;;;5104016;28;20379;-39
2021/11/13 09:03:08;;;;;;;3.10;2.20;;;16.50;70.10;;;;;;5104066;28;20028;-38
2021/11/13 09:05:34;;;;;;;2.83;2.00;;;16.50;70.10;;;;;;5103620;28;20028;-40
2021/11/13 09:08:01;;;;;;;2.95;2.05;;;16.50;70.10;;;;;;5099665;28;20086;-38
2021/11/13 09:10:27;;;;;;;;;;;16.50;70.10;;;;;;5084085;28;20037;-38
2021/11/13 09:12:54;;;;;;;3.20;2.03;;;16.40;70.10;;;;;;5098733;28;19915;-38
2021/11/13 09:15:24;;;;;;;2.67;2.17;;;16.50;70.50;;;;;;5102444;28;20042;-38
2021/11/13 09:17:51;;;;;;;2.85;2.30;;;16.60;70.50;;;;;;5103580;28;20268;-38
2021/11/13 09:20:18;;;;;;;3.10;2.13;;;16.60;70.20;;;;;;5103657;28;20027;-38
2021/11/13 09:22:45;;;;;;;2.28;2.08;;;16.60;70.00;;;;;;5101913;28;20031;-38
2021/11/13 09:25:11;;;;;;;3.03;2.25;;;16.60;70.10;;;;;;5103626;28;20020;-38
2021/11/13 09:27:41;;;;;;;3.22;2.40;;;16.50;70.20;;;;;;5103267;28;20040;-38
2021/11/13 09:30:10;;;;;;;2.78;2.20;;;16.50;70.10;;;;;;5102217;28;20024;-37
2021/11/13 09:32:36;;;;;;;2.33;2.13;;;16.50;70.10;;;;;;5103504;28;20058;-38
2021/11/13 09:35:02;;;;;;;2.72;2.20;;;16.40;70.00;;;;;;5102145;28;20035;-38
2021/11/13 09:37:29;;;;;;;2.28;2.05;;;16.40;70.00;;;;;;5100524;28;20040;-38
2021/11/13 09:39:55;;;;;;;2.67;1.95;;;16.50;70.40;;;;;;5102775;28;20020;-38
2021/11/13 09:42:22;;;;;;;3.25;2.15;;;16.60;70.60;;;;;;5101886;28;20028;-38
2021/11/13 09:44:49;;;;;;;2.78;2.00;;;16.60;70.40;;;;;;5103320;28;20062;-38
2021/11/13 09:47:15;;;;;;;3.45;2.33;;;16.60;70.10;;;;;;5102923;28;20689;-38
2021/11/13 09:49:41;;;;;;;2.53;2.22;;;16.60;70.10;;;;;;5101835;28;20028;-38
2021/11/13 09:52:08;;;;;;;2.83;2.33;;;16.50;70.00;;;;;;5103228;28;20087;-38
2021/11/13 09:54:34;;;;;;;3.50;2.30;;;16.50;70.10;;;;;;5101341;28;20057;-38
2021/11/13 09:57:00;;;;;;;2.33;2.13;;;16.50;70.10;;;;;;5102615;28;20031;-38
2021/11/13 09:59:26;;;;;;;3.25;2.50;;;16.40;70.00;;;;;;5103321;28;20028;-38
2021/11/13 10:01:52;;;;;;;2.45;2.08;;;16.40;70.20;;;;;;5103158;28;20047;-38
2021/11/13 10:04:18;;;;;;;2.00;1.80;;;16.50;70.50;;;;;;5102963;28;20034;-38
2021/11/13 10:06:45;;;;;;;2.35;2.10;;;16.60;70.50;;;;;;5101446;28;20488;-38
2021/11/13 10:09:11;;;;;;;2.63;1.90;;;16.60;70.20;;;;;;5089160;28;20069;-38
2021/11/13 10:11:48;;;;;;;3.60;2.15;;;16.60;70.00;;;;;;5087211;28;20020;-38
2021/11/13 10:14:14;;;;;;;3.47;2.33;;;16.60;70.00;;;;;;5102735;28;20039;-38
2021/11/13 10:16:46;;;;;;;3.05;2.22;;;16.50;70.00;;;;;;5102533;28;20031;-38
2021/11/13 10:19:19;;;;;;;2.42;2.22;;;16.50;70.00;;;;;;5102838;28;20028;-38
2021/11/13 10:21:47;;;;;;;2.95;2.05;;;16.50;70.00;;;;;;5102642;28;20028;-38
2021/11/13 10:24:18;;;;;;;2.25;2.05;;;16.40;70.00;;;;;;5102674;28;20024;-38
2021/11/13 10:26:59;;;;;;;3.08;2.17;;;16.50;70.30;;;;;;5100960;28;20036;-38
2021/11/13 10:29:30;;;;;;;2.40;2.10;;;16.60;70.40;;;;;;5101396;28;20028;-38
2021/11/13 10:31:58;;;;;;;2.10;1.80;;;16.60;70.20;;;;;;5102146;28;20465;-38
2021/11/13 10:34:27;;;;;;;2.80;2.25;;;16.60;70.10;;;;;;5102670;28;20032;-38
2021/11/13 10:36:59;;;;;;;2.50;1.95;;;16.60;70.00;;;;;;5102380;28;20020;-38
2021/11/13 10:39:36;;;;;;;3.58;2.33;;;16.60;70.00;;;;;;5101814;28;20107;-38
2021/11/13 10:42:17;;;;;;;2.90;2.50;;;16.50;70.00;;;;;;5101469;28;20056;-38
2021/11/13 10:44:59;;;;;;;2.83;2.30;;;16.50;70.10;;;;;;5102618;28;20058;-38
2021/11/13 10:47:36;;;;;;;2.28;1.98;;;16.40;70.00;;;;;;5102253;28;20572;-38
2021/11/13 10:50:19;;;;;;;3.20;2.10;;;16.50;70.20;;;;;;5102028;28;20056;-38
2021/11/13 10:53:07;;;;;;;2.53;1.95;;;16.60;70.60;;;;;;5102148;28;20036;-38
2021/11/13 10:55:35;;;;;;;2.72;2.17;;;16.60;70.20;;;;;;5102336;28;20054;-38
2021/11/13 10:58:28;;;;;;;3.00;2.10;;;16.60;70.00;;;;;;5102328;28;20038;-38
2021/11/13 11:00:57;;;;;;;3.05;2.33;;;16.60;70.00;;;;;;5102537;28;20032;-38
2021/11/13 11:03:29;;;;;;;2.85;2.40;;;16.50;70.00;;;;;;5102456;28;20021;-38
2021/11/13 11:05:56;;;;;;;2.65;2.30;;;16.50;70.00;;;;;;5102353;28;20032;-38
2021/11/13 11:08:27;;;;;;;2.85;2.50;;;16.50;70.00;;;;;;5101099;28;20170;-38
2021/11/13 11:10:53;;;;;;;2.33;1.80;;;16.40;69.90;;;;;;5102390;28;20020;-38
2021/11/13 11:13:50;;;;;;;2.65;2.10;;;16.50;70.30;;;;;;5102462;28;20427;-38
2021/11/13 11:16:33;;;;;;;2.22;1.88;;;16.60;70.50;;;;;;5102544;28;20017;-38
2021/11/13 11:19:00;;;;;;;2.30;2.10;;;16.60;70.10;;;;;;5102025;28;20077;-38
2021/11/13 11:21:41;;;;;;;;;;;16.60;70.00;;;;;;5102715;28;20055;-38
2021/11/13 11:24:23;;;;;;;2.35;2.10;;;16.60;70.00;;;;;;5102124;28;19904;-38
2021/11/13 11:26:58;;;;;;;2.70;2.42;;;16.50;70.00;;;;;;5102002;28;20047;-38
2021/11/13 11:29:24;;;;;;;2.47;1.92;;;16.50;70.00;;;;;;5101884;28;20138;-38
2021/11/13 11:31:52;;;;;;;3.00;2.00;;;16.50;70.00;;;;;;5102411;28;20078;-38
2021/11/13 11:34:39;;;;;;;2.35;1.92;;;16.50;70.20;;;;;;5102246;28;20095;-38
2021/11/13 11:37:10;;;;;;;2.40;2.00;;;16.60;70.50;;;;;;5102195;28;20025;-38
2021/11/13 11:39:36;;;;;;;2.15;1.95;;;16.60;70.20;;;;;;5100966;28;20024;-38
2021/11/13 11:42:04;;;;;;;2.57;1.93;;;16.60;70.00;;;;;;5102223;28;20024;-38
2021/11/13 11:44:29;;;;;;;;;;;16.60;70.00;;;;;;5102390;28;20016;-38
2021/11/13 11:46:56;;;;;;;2.15;1.90;;;16.50;70.00;;;;;;5104331;28;19938;-38
2021/11/13 11:49:22;;;;;;;2.73;2.10;;;16.50;70.00;;;;;;5096392;28;20070;-38
2021/11/13 11:51:48;;;;;;;3.33;1.92;;;16.50;70.00;;;;;;5084014;28;20051;-38
2021/11/13 11:54:15;;;;;;;2.50;2.08;;;16.40;69.90;;;;;;5084933;28;20037;-38
2021/11/13 11:56:41;;;;;;;2.20;2.00;;;16.50;70.10;;;;;;5085387;28;20031;-38
2021/11/13 11:59:07;;;;;;;2.17;1.98;;;16.50;70.40;;;;;;5085015;28;20417;-38
2021/11/13 12:01:41;;;;;;;2.67;2.00;;;16.60;70.20;;;;;;5085194;28;20025;-38
2021/11/13 12:04:16;;;;;;;2.58;2.00;;;16.70;70.00;;;;;;5083810;28;20035;-38
2021/11/13 12:06:45;;;;;;;2.22;1.77;;;16.60;69.90;;;;;;5084999;28;20067;-38
2021/11/13 12:09:11;;;;;;;4.28;2.00;;;16.60;70.20;;;;;;5098012;28;20043;-38
2021/11/13 12:11:37;;;;;;;2.60;2.15;;;16.50;70.00;;;;;;5105250;28;20047;-38
2021/11/13 12:14:23;;;;;;;2.10;1.83;;;16.50;70.00;;;;;;5105175;28;20039;-38
2021/11/13 12:16:51;;;;;;;2.35;2.10;;;16.50;70.00;;;;;;5084753;28;20032;-38
2021/11/13 12:19:17;;;;;;;2.30;1.92;;;16.50;70.10;;;;;;5091876;28;20021;-38
2021/11/13 12:21:54;;;;;;;1.95;1.77;;;16.60;70.40;;;;;;5105076;28;20477;-38
2021/11/13 12:24:20;;;;;;;2.50;1.83;;;16.60;70.10;;;;;;5104983;28;20024;-38
2021/11/13 12:27:00;;;;;;;2.20;2.00;;;16.60;69.90;;;;;;5104979;28;20024;-38
2021/11/13 12:29:28;;;;;;;2.08;1.88;;;16.60;69.90;;;;;;5104759;28;20032;-38
2021/11/13 12:31:56;;;;;;;;;;;16.60;69.90;;;;;;5105294;28;20043;-38
2021/11/13 12:34:24;;;;;;;2.50;2.00;;;16.50;69.90;;;;;;5104918;28;19991;-38
2021/11/13 12:36:51;;;;;;;2.08;1.83;;;16.50;69.90;;;;;;5104800;28;20133;-38
2021/11/13 12:39:22;;;;;;;2.63;2.10;;;16.40;69.80;;;;;;5103327;28;20044;-38
2021/11/13 12:41:57;;;;;;;2.25;1.67;;;16.40;69.90;;;;;;5104684;28;20366;-38
2021/11/13 12:44:45;;;;;;;2.67;1.90;;;16.50;70.30;;;;;;5103083;28;20055;-38
2021/11/13 12:47:37;;;;;;;2.85;2.08;;;16.60;70.30;;;;;;5104602;28;20036;-38
2021/11/13 12:50:08;;;;;;;1.88;1.63;;;16.60;69.90;;;;;;5104241;28;20095;-38